Wind From: 20-06-2018 11:00 Until: 22:00 warning for: Wind Level: Yellow info button
suomi:
Tuulivaroitus maa-alueille: Länsituuli on voimakasta keskipäivästä alkaen, tuulen nopeus puuskissa 15 m/s.

svenska:
Vindvarning för landområden: Från och med middagen är den västliga vinden kraftigt, i vindbyarna 15 m/s.

english:
Wind warning for land areas: From noon on, strong winds from west may bring strong gusts of 15 m/s. 


Thunder radar more information blitzortung!


Löydät sääaseman tiedot myös:

European Weather Network

Finland Weather Exchange

Weather Underground

AWEKAS



Weather Underground säähistoriasivu

Päivittäin yhteenveto Tammikuu 3, 2017 Yksiköt:  Englantilaiset    Metriset   Molemmat
« Edellinen Päivä
Seuraava Päivä »
Päivittäin Viikoittain Kuukausittain Vuosittain Mukautettu
  Korkea: Matala: Keskiarvo:
Lämpötila: TemperatureC °F -11.2 °F -8.9 °F
Kastepiste: DewpointC °F -12.3 °F -10 °F
Kosteus: Humidity % 89 % 91 %
Tuulen nopeus: WindSpeedKMH mph 0.0 mph 0 mph
Tuulenpuuska: WindSpeedGustKMH mph - -
Tuuli:- - North
Ilmanpaine: PressurehPa in 996.2 in -
Sade: 0.0 in    
Historical Graphs
 
 
Taulukkotiedot Tammikuu 3, 2017
Aika Lämpötila Kastepiste Ilmanpaine Tuuli Tuulen nopeus Tuulenpuuska Kosteus Sademäärä (tunneittain)
TemperatureC °F DewpointC °F PressurehPa in Calm     Humidity % HourlyPrecipMM in
00:00 -6.1 °F -7.1 °F 1002.3 in Calm     93 % 0.0 in
00:15 -6.2 °F -7.2 °F 1002.3 in Calm     93 % 0.0 in
00:30 -6.3 °F -7.2 °F 1002.3 in Calm     93 % 0.0 in
00:45 -6.3 °F -7.2 °F 1002.3 in Calm     93 % 0.0 in
01:00 -6.3 °F -7.3 °F 1002.3 in Calm     93 % 0.0 in
01:15 -6.4 °F -7.4 °F 1002.3 in Calm     93 % 0.0 in
01:30 -6.5 °F -7.4 °F 1002.3 in Calm     93 % 0.0 in
01:45 -6.6 °F -7.7 °F 1001.9 in Calm     92 % 0.0 in
02:00 -6.7 °F -7.6 °F 1001.9 in Calm     93 % 0.0 in
02:15 -6.6 °F -7.6 °F 1001.9 in Calm     93 % 0.0 in
02:30 -6.6 °F -7.6 °F 1001.6 in Calm     93 % 0.0 in
02:45 -6.6 °F -7.6 °F 1001.6 in Calm     93 % 0.0 in
03:00 -6.7 °F -7.7 °F 1001.6 in Calm     93 % 0.0 in
03:15 -6.8 °F -7.8 °F 1001.6 in Calm     93 % 0.0 in
03:30 -7.0 °F -8.1 °F 1001.6 in Calm     92 % 0.0 in
03:45 -7.2 °F -8.3 °F 1001.6 in Calm     92 % 0.0 in
04:00 -7.6 °F -8.6 °F 1001.6 in Calm     92 % 0.0 in
04:15 -7.8 °F -8.9 °F 1001.2 in Calm     92 % 0.0 in
04:30 -7.9 °F -9.0 °F 1001.2 in Calm     92 % 0.0 in
04:45 -8.2 °F -9.2 °F 1001.2 in Calm     92 % 0.0 in
05:00 -8.4 °F -9.5 °F 1000.9 in Calm     92 % 0.0 in
05:15 -8.8 °F -10.0 °F 1000.9 in Calm     91 % 0.0 in
05:30 -9.1 °F -10.1 °F 1000.9 in Calm     92 % 0.0 in
05:45 -9.4 °F -10.4 °F 1000.9 in Calm     92 % 0.0 in
06:00 -9.7 °F -10.7 °F 1000.9 in Calm     92 % 0.0 in
06:15 -9.9 °F -11.1 °F 1000.9 in Calm     91 % 0.0 in
06:30 -10.0 °F -11.1 °F 1000.9 in Calm     92 % 0.0 in
06:45 -10.0 °F -11.1 °F 1000.6 in Calm     92 % 0.0 in
07:00 -9.9 °F -10.8 °F 1000.9 in Calm     93 % 0.0 in
07:15 -9.7 °F -10.6 °F 1000.6 in Calm     93 % 0.0 in
07:30 -9.2 °F -10.1 °F 1000.9 in Calm     93 % 0.0 in
07:45 -8.8 °F -9.6 °F 1000.6 in Calm     94 % 0.0 in
08:00 -8.5 °F -9.3 °F 1000.6 in Calm     94 % 0.0 in
08:15 -8.3 °F -9.1 °F 1000.6 in Calm     94 % 0.0 in
08:30 -8.1 °F -8.9 °F 1000.6 in Calm     94 % 0.0 in
08:45 -8.1 °F -9.0 °F 1000.2 in Calm     93 % 0.0 in
09:00 -8.3 °F -9.4 °F 999.9 in Calm     92 % 0.0 in
09:15 -8.8 °F -10.0 °F 999.9 in Calm     91 % 0.0 in
09:30 -9.2 °F -10.4 °F 1000.2 in Calm     91 % 0.0 in
09:45 -9.6 °F -10.8 °F 999.9 in Calm     91 % 0.0 in
10:00 -10.0 °F -10.0 °F 999.9 in Calm     100 % 0.0 in
10:15 -10.6 °F -11.7 °F 1000.2 in Calm     91 % 0.0 in
10:30 -10.8 °F -12.0 °F 999.9 in Calm     91 % 0.0 in
10:45 -11.0 °F -12.2 °F 999.9 in Calm     91 % 0.0 in
11:00 -11.2 °F -12.3 °F 999.9 in Calm     91 % 0.0 in
11:15 -11.0 °F -12.0 °F 999.5 in Calm     92 % 0.0 in
11:30 -10.8 °F -11.8 °F 999.5 in Calm     92 % 0.0 in
11:45 -10.7 °F -11.7 °F 999.5 in Calm     92 % 0.0 in
12:00 -10.6 °F -11.6 °F 999.2 in Calm     92 % 0.0 in
12:15 -10.5 °F -11.5 °F 999.2 in Calm     92 % 0.0 in
12:30 -10.4 °F -11.5 °F 999.2 in Calm     92 % 0.0 in
12:45 -10.4 °F -11.4 °F 998.9 in Calm     92 % 0.0 in
13:00 -10.1 °F -11.0 °F 998.9 in Calm     93 % 0.0 in
13:15 -9.6 °F -10.5 °F 998.5 in Calm     93 % 0.0 in
13:30 -9.4 °F -10.3 °F 998.5 in Calm     93 % 0.0 in
13:45 -9.3 °F -10.3 °F 998.2 in Calm     92 % 0.0 in
14:00 -9.3 °F -10.3 °F 998.2 in Calm     92 % 0.0 in
14:15 -9.2 °F -10.3 °F 997.9 in Calm     92 % 0.0 in
14:30 -9.4 °F -10.4 °F 998.2 in Calm     92 % 0.0 in
14:45 -9.5 °F -10.6 °F 998.2 in Calm     92 % 0.0 in
15:00 -9.7 °F -10.9 °F 997.9 in Calm     91 % 0.0 in
15:15 -9.7 °F -10.8 °F 997.9 in Calm     92 % 0.0 in
15:30 -9.6 °F -10.7 °F 997.5 in Calm     92 % 0.0 in
15:45 -9.4 °F -10.5 °F 997.5 in Calm     92 % 0.0 in
16:00 -9.4 °F -10.4 °F 997.5 in Calm     92 % 0.0 in
16:15 -9.3 °F -10.4 °F 997.5 in Calm     92 % 0.0 in
16:30 -9.3 °F -10.3 °F 997.5 in Calm     92 % 0.0 in
16:45 -9.4 °F -10.4 °F 997.2 in Calm     92 % 0.0 in
17:00 -9.7 °F -10.9 °F 996.8 in Calm   3.2 mph 91 % 0.0 in
17:15 -10.0 °F -11.2 °F 996.8 in Calm   3.2 mph 91 % 0.0 in
17:30 -10.2 °F -11.4 °F 996.8 in Calm   1.6 mph 91 % 0.0 in
17:45 -10.3 °F -11.5 °F 997.2 in Calm   1.6 mph 91 % 0.0 in
18:00 -10.6 °F -11.9 °F 997.2 in Calm     90 % 0.0 in
18:15 -10.9 °F -12.1 °F 997.2 in Calm     91 % 0.0 in
18:30 -10.8 °F -11.8 °F 996.8 in Calm     92 % 0.0 in
18:45 -10.4 °F -11.3 °F 996.8 in Calm     93 % 0.0 in
19:00 -9.8 °F -10.6 °F 996.5 in Calm   1.6 mph 94 % 0.0 in
19:15 -9.2 °F -10.0 °F 996.5 in Calm   3.2 mph 94 % 0.0 in
19:30 -8.8 °F -9.8 °F 996.5 in Calm   1.6 mph 93 % 0.0 in
19:45 -8.8 °F -9.7 °F 996.2 in Calm   3.2 mph 93 % 0.0 in
20:00 -8.7 °F -9.8 °F 996.2 in Calm   3.2 mph 92 % 0.0 in
20:15 -8.7 °F -9.7 °F 996.2 in Calm   6.4 mph 92 % 0.0 in
20:30 -8.6 °F -9.7 °F 996.2 in Calm   3.2 mph 92 % 0.0 in
20:45 -8.7 °F -9.7 °F 996.2 in Calm   6.4 mph 92 % 0.0 in
21:00 -8.8 °F -10.0 °F 996.2 in Calm   3.2 mph 91 % 0.0 in
21:15 -8.8 °F -10.0 °F 996.2 in Calm   3.2 mph 91 % 0.0 in
21:30 -8.9 °F -10.1 °F 996.5 in Calm   1.6 mph 91 % 0.0 in
21:45 -9.1 °F -10.3 °F 996.5 in Calm   3.2 mph 91 % 0.0 in
22:00 -9.3 °F -10.5 °F 996.8 in Calm   4.8 mph 91 % 0.0 in
22:15 -9.6 °F -10.9 °F 996.8 in Calm   1.6 mph 90 % 0.0 in
22:30 -9.8 °F -11.2 °F 996.8 in Calm   4.8 mph 90 % 0.0 in
22:45 -9.9 °F -11.1 °F 997.2 in Calm   4.8 mph 91 % 0.0 in
23:00 -10.2 °F -11.5 °F 997.2 in Calm   3.2 mph 90 % 0.0 in
23:15 -10.3 °F -11.6 °F 997.5 in Calm   3.2 mph 90 % 0.0 in
23:30 -10.4 °F -11.8 °F 997.5 in Calm   6.4 mph 90 % 0.0 in
23:45 -10.8 °F -12.3 °F 997.9 in Calm   1.6 mph 89 % 0.0 in
Esan sääasema
Terveisin Weather Underground - 2.75 mb

Alkuperäinen skripti  Jim McMurry - jmcmurry@mwt.net Sovitettu myös templatelle  Wim van der Kuil - Leuven-Template.eu

Laitteet joita käytämme:

Sääasema
Davis VP2

Sääasemaohjelma
Cumulus

Sääaseman tietokone
Asus EeePC

Palveluntarjoaja
Suncomet

Davis VP2

Cumulus

Asus EeePC

Suncomet